X  Lukk Metar værinformasjon om luftfart     LEAL Alicante-Elche Miguel Hernández Airport
Temperatur
22°C Temperatur
16°C Duggpunkt
69% Luftfuktighet



Vind
10 KM/T
6 MPT
3 M/S
5 KNP



170°
S
Nåværende forhold

Klart Klart
Trykk 1015.92 (hPa) - 30 (inHg)
Sikt 6 (mil) - 9.7 (km)
Flyplass
Flyplass-kode LEAL

Plassering: Alicante-Elche Miguel Hernández Airport
Avstand: 30 (km)

Metar:
LEAL 251800Z 17005KT 110V220 CAVOK 22/16 Q1016 NOSIG

Tid: 25-05-2024 20:00 CEST